Latest Weather Observations for Evans Head

IDN60801

Issued at 3:35 pm EST Wednesday 1 October 2014 (issued every 30 minutes, with the page automatically refreshed every 10 minutes)

About weather observations | Map of weather stations | Latest weather observations for NSW | Other Formats
Station Details ID: 058212 Name: EVANS HEAD RAAF BOMBING RANGE AWS Lat: -29.18 Lon: 153.40 Height: 62.5 m
Data from the previous 72 hours. | See also: Recent months at Evans Head
Date/Time
EST
Temp
°C
App
Temp
°C
Dew
Point
Rel
Hum
%
Delta-T
°C
Wind Press
QNH
hPa
Press
MSL
hPa
Rain
since 9 am
mm
Dir
 
Spd
km/h
Gust
km/h
Spd
kts
Gust
kts
01/03:30pm 20.7 15.2 15.7 73 3.0 S 39 57 21 31 1015.2 1015.0 0.0
01/03:12pm 20.6 15.0 15.4 72 3.1 S 39 57 21 31 1014.7 1014.5 0.0
01/03:00pm 21.3 15.8 15.8 71 3.3 S 39 54 21 29 1014.7 1014.5 0.0
01/02:33pm 22.0 16.8 16.5 71 3.3 S 39 57 21 31 1014.4 1014.2 0.0
01/02:30pm 22.0 16.3 16.3 70 3.5 S 41 57 22 31 1014.3 1014.1 0.0
01/02:28pm 21.8 16.4 15.9 69 3.6 S 39 57 21 31 1014.2 1014.0 0.0
01/02:00pm 23.0 17.6 17.0 69 3.7 S 41 57 22 31 1013.9 1013.7 0.0
01/01:30pm 23.7 17.7 17.9 70 3.6 S 46 67 25 36 1013.0 1012.8 0.0
01/01:02pm 24.2 17.9 17.2 65 4.3 S 46 69 25 37 1012.5 1012.3 0.0
01/01:00pm 24.6 18.4 17.3 64 4.5 S 46 63 25 34 1012.5 1012.3 0.0
01/12:57pm 25.6 19.6 17.0 59 5.3 S 44 63 24 34 1012.5 1012.3 0.0
01/12:54pm 27.3 21.2 16.3 51 6.8 S 43 59 23 32 1012.3 1012.1 0.0
01/12:53pm 28.3 27.1 16.2 47 7.5 SE 17 50 9 27 1012.3 1012.1 0.0
01/12:30pm 33.3 30.0 8.0 21 14.1 W 15 26 8 14 1012.1 1011.9 0.0
01/12:00pm 32.2 30.2 10.3 26 12.6 W 11 20 6 11 1012.3 1012.1 0.0
01/11:30am 32.0 29.9 12.3 30 11.7 WNW 15 26 8 14 1012.8 1012.6 0.0
01/11:00am 30.4 28.8 12.8 34 10.4 W 13 24 7 13 1013.4 1013.1 0.0
01/10:30am 30.1 28.3 12.1 33 10.6 NW 13 28 7 15 1013.6 1013.4 0.0
01/10:00am 29.8 28.8 14.7 39 9.2 NNW 13 28 7 15 1014.0 1013.8 0.0
01/09:30am 28.6 27.2 15.5 45 8.0 NNW 17 26 9 14 1014.3 1014.1 0.0
01/09:00am 27.3 26.6 15.3 48 7.3 NW 13 24 7 13 1014.6 1014.4 0.0
01/08:30am 25.7 24.1 16.0 55 5.9 NNW 19 30 10 16 1014.4 1014.2 0.0
01/08:00am 24.0 22.2 16.0 61 4.9 NNW 20 33 11 18 1014.6 1014.4 0.0
01/07:30am 22.9 21.1 15.5 63 4.4 NNW 19 30 10 16 1014.4 1014.2 0.0
01/07:00am 21.4 20.7 15.3 68 3.6 NNW 13 24 7 13 1014.7 1014.5 0.0
01/06:30am 19.5 20.7 16.0 80 2.1 WNW 4 11 2 6 1014.7 1014.5 0.0
01/06:00am 17.1 17.6 16.6 97 0.3 N 9 20 5 11 1014.0 1013.8 0.0
01/05:30am 15.7 15.7 15.2 97 0.3 ENE 9 13 5 7 1013.7 1013.5 0.0
01/05:00am 15.8 15.8 15.3 97 0.3 NNE 9 17 5 9 1013.3 1013.1 0.0
01/04:30am 15.7 15.3 15.2 97 0.3 NNE 11 17 6 9 1013.0 1012.9 0.0
01/04:00am 15.5 15.0 15.0 97 0.3 NNE 11 17 6 9 1012.8 1012.7 0.0
01/03:30am 15.4 14.5 14.9 97 0.3 N 13 17 7 9 1012.7 1012.6 0.0
01/03:00am 15.9 15.2 15.4 97 0.3 NNE 13 19 7 10 1012.9 1012.8 0.0
01/02:30am 16.1 15.9 15.6 97 0.3 NNE 11 19 6 10 1013.4 1013.2 0.0
01/02:00am 15.8 15.8 15.3 97 0.3 NNE 9 17 5 9 1013.5 1013.3 0.0
01/01:30am 16.1 15.9 15.6 97 0.3 NNE 11 19 6 10 1013.9 1013.7 0.0
01/01:00am 16.2 15.6 15.7 97 0.3 N 13 17 7 9 1014.2 1014.0 0.0
01/12:30am 16.0 15.4 15.7 98 0.2 N 13 19 7 10 1014.7 1014.5 0.0
01/12:00am 15.9 15.6 15.4 97 0.3 N 11 15 6 8 1015.0 1014.8 0.0
 
Date/Time
EST
Temp
°C
App
Temp
°C
Dew
Point
Rel
Hum
%
Delta-T
°C
Wind Press
QNH
hPa
Press
MSL
hPa
Rain
since 9 am
mm
Dir
 
Spd
km/h
Gust
km/h
Spd
kts
Gust
kts
30/11:30pm 16.1 16.8 15.6 97 0.3 NNW 6 9 3 5 1015.4 1015.2 0.0
30/11:00pm 16.4 16.7 15.9 97 0.3 N 9 13 5 7 1015.5 1015.3 0.0
30/10:30pm 17.1 16.9 16.6 97 0.3 N 13 20 7 11 1015.7 1015.5 0.0
30/10:00pm 17.2 17.0 16.7 97 0.3 N 13 20 7 11 1015.9 1015.7 0.0
30/09:30pm 17.8 17.3 16.8 94 0.6 N 15 22 8 12 1016.0 1015.8 0.0
30/09:00pm 18.1 17.5 16.6 91 0.9 N 15 22 8 12 1016.2 1016.0 0.0
30/08:30pm 18.3 17.8 17.0 92 0.8 N 15 22 8 12 1016.1 1015.9 0.0
30/08:00pm 18.7 17.9 17.2 91 0.9 NNE 17 26 9 14 1016.1 1015.9 0.0
30/07:30pm 19.0 18.2 17.0 88 1.2 NNE 17 28 9 15 1016.0 1015.8 0.0
30/07:00pm 19.3 18.0 16.9 86 1.5 NNE 19 30 10 16 1015.9 1015.7 0.0
30/06:30pm 19.7 18.2 16.7 83 1.8 NNE 20 30 11 16 1015.6 1015.4 0.0
30/06:00pm 20.2 18.5 16.2 78 2.4 NNE 20 35 11 19 1015.2 1015.0 0.0
30/05:30pm 20.8 18.4 16.4 76 2.7 NNE 24 35 13 19 1014.8 1014.6 0.0
30/05:00pm 22.0 19.9 16.1 69 3.6 NNE 22 35 12 19 1014.7 1014.5 0.0
30/04:30pm 23.1 20.4 15.7 63 4.5 NNE 24 39 13 21 1015.0 1014.8 0.0
30/04:00pm 24.7 22.5 15.9 58 5.4 NNE 22 35 12 19 1015.2 1015.0 0.0
30/03:30pm 26.1 25.1 16.6 55 5.9 NNE 17 28 9 15 1015.2 1015.0 0.0
30/03:00pm 26.2 24.7 16.2 54 6.2 NNE 19 32 10 17 1015.3 1015.1 0.0
30/02:30pm 26.5 25.2 15.8 51 6.6 NE 17 28 9 15 1015.4 1015.2 0.0
30/02:00pm 27.0 25.5 15.4 49 7.1 NE 17 30 9 16 1015.7 1015.5 0.0
30/01:30pm 26.8 24.8 14.9 48 7.2 NNE 19 30 10 16 1016.0 1015.8 0.0
30/01:00pm 27.0 25.5 15.4 49 7.1 NE 17 24 9 13 1016.5 1016.3 0.0
30/12:30pm 28.0 27.3 16.3 49 7.3 NNE 15 26 8 14 1016.9 1016.7 0.0
30/12:00pm 27.1 26.2 15.8 50 6.9 NNE 15 24 8 13 1017.3 1017.1 0.0
30/11:30am 28.1 27.5 15.7 46 7.6 NNE 13 20 7 11 1017.5 1017.3 0.0
30/11:00am 28.0 27.5 13.9 42 8.4 N 9 19 5 10 1017.9 1017.7 0.0
30/10:30am 27.9 27.4 14.9 45 7.9 N 11 19 6 10 1018.5 1018.3 0.0
30/10:00am 27.2 27.5 15.9 50 6.9 N 9 19 5 10 1018.9 1018.7 0.0
30/09:30am 25.4 25.0 15.1 53 6.2 N 11 17 6 9 1019.2 1019.0 0.0
30/09:00am 24.0 24.4 15.2 58 5.3 N 7 15 4 8 1019.4 1019.2 0.0
30/08:30am 22.6 22.1 13.9 58 5.1 N 9 13 5 7 1019.5 1019.3 0.0
30/08:00am 21.1 21.5 16.3 74 2.9 N 9 13 5 7 1019.3 1019.1 0.0
30/07:30am 19.2 19.5 17.0 87 1.3 N 11 17 6 9 1019.0 1018.8 0.0
30/07:00am 16.5 16.4 16.0 97 0.3 N 11 15 6 8 1019.0 1018.8 0.0
30/06:30am 14.9 13.9 14.6 98 0.2 N 13 15 7 8 1018.8 1018.6 0.0
30/06:00am 13.8 12.4 13.5 98 0.2 N 13 15 7 8 1018.6 1018.4 0.0
30/05:30am 13.6 12.2 13.3 98 0.2 N 13 17 7 9 1018.3 1018.1 0.0
30/05:00am 13.7 12.7 13.4 98 0.2 N 11 15 6 8 1017.8 1017.6 0.0
30/04:30am 14.0 13.5 13.7 98 0.2 N 9 13 5 7 1017.7 1017.5 0.0
30/04:00am 14.0 13.5 13.7 98 0.2 N 9 13 5 7 1017.5 1017.3 0.0
30/03:30am 13.8 13.2 13.5 98 0.2 N 9 11 5 6 1017.5 1017.3 0.0
30/03:00am 13.9 13.3 13.6 98 0.2 N 9 11 5 6 1017.5 1017.3 0.0
30/02:30am 14.0 13.5 13.7 98 0.2 N 9 13 5 7 1017.4 1017.2 0.0
30/02:00am 14.1 13.5 13.6 97 0.3 N 9 13 5 7 1017.6 1017.4 0.0
30/01:30am 14.4 13.6 13.9 97 0.3 N 11 13 6 7 1017.6 1017.4 0.0
30/01:00am 14.6 13.8 14.1 97 0.3 N 11 13 6 7 1017.9 1017.7 0.0
30/12:30am 15.0 14.4 14.5 97 0.3 N 11 13 6 7 1018.0 1017.8 0.0
30/12:00am 15.0 14.0 14.5 97 0.3 N 13 17 7 9 1018.0 1017.8 0.0
 
Date/Time
EST
Temp
°C
App
Temp
°C
Dew
Point
Rel
Hum
%
Delta-T
°C
Wind Press
QNH
hPa
Press
MSL
hPa
Rain
since 9 am
mm
Dir
 
Spd
km/h
Gust
km/h
Spd
kts
Gust
kts
29/11:30pm 15.0 13.6 14.5 97 0.3 N 15 17 8 9 1018.1 1017.9 0.0
29/11:00pm 15.4 14.5 14.9 97 0.3 N 13 15 7 8 1018.1 1017.9 0.0
29/10:30pm 16.0 15.3 15.5 97 0.3 N 13 17 7 9 1018.2 1018.0 0.0
29/10:00pm 16.7 16.1 15.6 93 0.6 N 13 19 7 10 1018.2 1018.0 0.0
29/09:30pm 16.9 15.6 15.8 93 0.6 N 17 24 9 13 1018.1 1017.9 0.0
29/09:00pm 17.3 16.0 15.8 91 0.9 N 17 22 9 12 1018.1 1017.9 0.0
29/08:30pm 17.4 17.0 16.3 93 0.7 N 13 19 7 10 1018.1 1017.9 0.0
29/08:00pm 17.9 17.3 16.6 92 0.8 N 15 20 8 11 1018.0 1017.8 0.0
29/07:30pm 18.4 17.4 16.6 89 1.1 N 17 22 9 12 1017.7 1017.5 0.0
29/07:00pm 18.7 17.6 16.3 86 1.4 NNE 17 24 9 13 1017.4 1017.2 0.0
29/06:30pm 19.2 18.0 16.1 82 1.9 NNE 17 24 9 13 1017.1 1016.9 0.0
29/06:00pm 19.5 18.2 15.8 79 2.2 NNE 17 24 9 13 1016.7 1016.5 0.0
29/05:30pm 20.5 19.5 15.5 73 3.0 NNE 15 22 8 12 1016.4 1016.2 0.0
29/05:00pm 21.7 20.9 16.0 70 3.4 NNE 15 22 8 12 1016.1 1015.9 0.0
29/04:30pm 23.0 22.2 16.1 65 4.2 NNE 15 22 8 12 1016.1 1015.9 0.0
29/04:00pm 23.5 21.6 15.3 60 4.9 NNE 19 26 10 14 1016.2 1016.0 0.0
29/03:30pm 25.1 23.5 16.0 57 5.6 NE 19 24 10 13 1016.1 1015.9 0.0
29/03:00pm 25.6 24.2 15.6 54 6.1 NE 17 28 9 15 1016.2 1016.0 0.0
29/02:30pm 26.4 25.1 15.8 52 6.5 NNE 17 24 9 13 1016.2 1016.0 0.0
29/02:00pm 26.5 25.6 15.8 51 6.5 NE 15 26 8 14 1016.4 1016.2 0.0
29/01:30pm 26.0 24.4 13.8 47 7.2 NNE 15 24 8 13 1016.8 1016.6 0.0
29/01:00pm 27.2 26.2 14.6 46 7.6 NNE 13 22 7 12 1017.3 1017.1 0.0
29/12:30pm 27.3 27.1 13.6 43 8.1 N 7 20 4 11 1017.8 1017.6 0.0
29/12:00pm 27.2 25.7 13.2 42 8.2 NNW 13 22 7 12 1018.1 1017.9 0.0
29/11:30am 26.4 25.0 13.5 45 7.6 NNW 13 22 7 12 1018.5 1018.3 0.0
29/11:00am 26.1 24.9 13.9 47 7.2 NNW 13 22 7 12 1019.0 1018.8 0.0
29/10:30am 25.0 22.7 12.9 47 7.0 NNW 17 32 9 17 1019.5 1019.3 0.0
29/10:00am 24.7 23.4 14.8 54 5.9 N 15 24 8 13 1019.9 1019.7 0.0
29/09:30am 23.1 20.5 13.3 54 5.7 N 19 28 10 15 1019.9 1019.7 0.0
29/09:00am 22.4 20.3 13.5 57 5.1 N 17 22 9 12 1020.1 1019.9 0.0
29/08:30am 21.4 19.7 13.6 61 4.5 N 15 22 8 12 1020.5 1020.3 0.0
29/08:00am 20.3 18.9 13.5 65 3.9 N 13 19 7 10 1020.9 1020.7 0.0
29/07:30am 18.7 17.8 13.8 73 2.8 N 11 22 6 12 1021.0 1020.8 0.0
29/07:00am 16.3 16.0 14.5 89 1.0 NNW 9 13 5 7 1020.9 1020.7 0.0
29/06:30am 13.7 12.6 13.2 97 0.3 NNW 11 13 6 7 1020.7 1020.5 0.0
29/06:00am 12.5 11.0 12.0 97 0.3 N 11 15 6 8 1020.4 1020.2 0.0
29/05:30am 12.1 10.9 11.6 97 0.3 N 9 13 5 7 1020.2 1020.0 0.0
29/05:00am 13.1 12.2 12.6 97 0.3 NW 9 13 5 7 1020.0 1019.8 0.0
29/04:30am 13.2 12.7 12.7 97 0.3 NW 7 11 4 6 1019.8 1019.6 0.0
29/04:00am 13.2 12.3 12.7 97 0.3 NW 9 9 5 5 1019.5 1019.3 0.0
29/03:30am 12.6 11.5 12.1 97 0.3 NNW 9 11 5 6 1019.4 1019.2 0.0
29/03:00am 12.1 10.5 11.6 97 0.3 NNW 11 13 6 7 1019.3 1019.1 0.0
29/02:30am 12.0 10.8 11.5 97 0.3 N 9 13 5 7 1019.3 1019.1 0.0
29/02:00am 12.5 11.0 12.0 97 0.3 N 11 13 6 7 1019.6 1019.4 0.0
29/01:30am 12.8 11.4 12.2 96 0.3 N 11 13 6 7 1020.0 1019.8 0.0
29/01:00am 13.0 11.7 12.4 96 0.3 N 11 13 6 7 1020.3 1020.1 0.0
29/12:30am 13.0 11.6 12.1 94 0.5 N 11 13 6 7 1020.7 1020.5 0.0
29/12:00am 13.3 12.3 12.2 93 0.6 N 9 11 5 6 1021.0 1020.8 0.0
 
Date/Time
EST
Temp
°C
App
Temp
°C
Dew
Point
Rel
Hum
%
Delta-T
°C
Wind Press
QNH
hPa
Press
MSL
hPa
Rain
since 9 am
mm
Dir
 
Spd
km/h
Gust
km/h
Spd
kts
Gust
kts
28/11:30pm 13.5 12.4 12.1 91 0.8 N 9 11 5 6 1021.3 1021.2 0.0
28/11:00pm 13.7 12.5 11.6 87 1.1 N 9 11 5 6 1021.5 1021.4 0.0
28/10:30pm 14.2 12.9 11.4 83 1.5 N 9 13 5 7 1021.3 1021.2 0.0
28/10:00pm 15.0 13.4 11.4 79 1.9 NNE 11 13 6 7 1021.3 1021.2 0.0
28/09:30pm 15.4 13.8 11.4 77 2.2 NNE 11 13 6 7 1021.3 1021.2 0.0
28/09:00pm 16.0 14.4 11.4 74 2.5 NE 11 15 6 8 1021.2 1021.1 0.0
28/08:30pm 16.3 15.0 11.2 72 2.7 NE 9 13 5 7 1021.4 1021.3 0.0
28/08:00pm 16.3 14.8 10.6 69 3.0 NE 9 11 5 6 1021.1 1021.0 0.0
28/07:30pm 16.9 15.0 10.5 66 3.4 ENE 11 13 6 7 1020.8 1020.6 0.0
28/07:00pm 17.1 15.3 10.9 67 3.3 E 11 15 6 8 1020.4 1020.2 0.0
28/06:30pm 17.2 15.3 10.6 65 3.5 E 11 17 6 9 1020.2 1020.0 0.0
28/06:00pm 17.1 15.2 10.5 65 3.5 E 11 15 6 8 1020.1 1019.9 0.0
28/05:30pm 17.3 15.4 10.4 64 3.7 ESE 11 15 6 8 1020.0 1019.8 0.0
28/05:00pm 18.2 15.9 10.6 61 4.1 SE 13 17 7 9 1020.0 1019.8 0.0
28/04:30pm 19.0 16.7 11.8 63 4.0 SE 15 20 8 11 1020.0 1019.8 0.0
28/04:00pm 19.6 16.4 11.4 59 4.5 SE 19 26 10 14 1019.9 1019.7 0.0

Other Formats:

Comma delimited format used in spreadsheet applications
http://www.bom.gov.au/fwo/IDN60801/IDN60801.94598.axf

JavaScript Object Notation format (JSON) in row-major order
http://www.bom.gov.au/fwo/IDN60801/IDN60801.94598.json